This is the latest recevied weather packets stored in our database for station/object LU1HMQ-13. If no packets are shown the sender has not sent any weather packets the latest 10 day(s).
| Time | Temp. | Humidity | Pressure | Rain* | Wind** | Luminosity | Snow |
|---|---|---|---|---|---|---|---|
| 1788144379 | 61° F | 72% | 759.8 mmHg | 0 in | - | - | - |
| 1788137133 | 61° F | 72% | 759.8 mmHg | 0 in | - | - | - |
| 1788110032 | 72° F | 47% | 759.8 mmHg | 0 in | - | - | - |
| 1788100982 | 58° F | 59% | 761.3 mmHg | 0 in | - | - | - |
| 1788099150 | 58° F | 59% | 762.1 mmHg | 0 in | - | - | - |
| 1788097319 | 58° F | 59% | 762.1 mmHg | 0 in | - | - | - |
| 1788090073 | 44° F | 68% | 762.1 mmHg | 0 in | - | - | - |
| 1788088241 | 44° F | 68% | 761.3 mmHg | 0 in | - | - | - |
| 1788079190 | 44° F | 68% | 761.3 mmHg | 0 in | - | - | - |
| 1788064724 | 55° F | 61% | 762.1 mmHg | 0 in | - | - | - |
| 1788061088 | 55° F | 61% | 762.1 mmHg | 0 in | - | - | - |
| 1788059256 | 55° F | 61% | 762.1 mmHg | 0 in | - | - | - |
| 1788035767 | 63° F | 57% | 759.8 mmHg | 0 in | - | - | - |
| 1788026716 | 63° F | 57% | 759.8 mmHg | 0 in | - | - | - |
| 1788003229 | 47° F | 79% | 761.3 mmHg | 0 in | - | - | - |
| 1787983351 | 55° F | 61% | 760.6 mmHg | 0 in | - | - | - |
| 1787968886 | 55° F | 61% | 759.8 mmHg | 0 in | - | - | - |
| 1787945394 | 67° F | 51% | 756.1 mmHg | 0 in | - | - | - |
| 1787941758 | 67° F | 51% | 756.8 mmHg | 0 in | - | - | - |
| 1787939926 | 67° F | 51% | 756.8 mmHg | 0 in | - | - | - |
| 1787932680 | 61° F | 65% | 757.6 mmHg | 0 in | - | - | - |
| 1787921826 | 50° F | 91% | 758.3 mmHg | 0 in | - | - | - |
| 1787914580 | 50° F | 91% | 757.6 mmHg | 0 in | - | - | - |
| 1787901921 | 50° F | 91% | 756.1 mmHg | 0 in | - | - | - |
| 1787898285 | 50° F | 91% | 756.8 mmHg | 0 in | - | - | - |
* Rain latest hour (hover to see other rain measurements)
** Current wind speed in m/s (hover to see current wind gust speed)